PIT weather

Pittsburgh International Airport
Pittsburgh, Pennsylvania, United States

Public forecast

Using degrees Fahrenheit for public forecast. Weather courtesy of forecast.io.

Current aviation weather report (METAR) for Pittsburgh International Airport

Retrieved 2019/12/08 04:51 UTC (14 minutes ago):

KPIT 080451Z 14004KT 10SM FEW250 M02/M07 A3035 RMK AO2 SLP298 T10221072 400281056

Aviation forecast (TAF) for Pittsburgh International Airport

Retrieved 2019-12-08 00:22 UTC (5 hours ago):

TAF KPIT 072320Z 0800/0906 VRB03KT P6SM SKC FM081500 15006KT P6SM SCT025 FM081800 18010G18KT P6SM BKN030 FM082200 17008KT P6SM OVC050